This is the latest recevied weather packets stored in our database for station/object K0CPM-2. If no packets are shown the sender has not sent any weather packets the latest 10 day(s).
| Time | Temp. | Humidity | Pressure | Rain* | Wind** | Luminosity | Snow |
|---|---|---|---|---|---|---|---|
| 1777772759 | 20° C | 49% | 1014.9 hPa | 0 mm | - | - | - |
| 1777771859 | 20° C | 49% | 1014.8 hPa | 0 mm | - | - | - |
| 1777770966 | 20° C | 50% | 1014.6 hPa | 0 mm | - | - | - |
| 1777770058 | 20.56° C | 49% | 1014.3 hPa | 0 mm | - | - | - |
| 1777769152 | 20.56° C | 48% | 1014.1 hPa | 0 mm | - | - | - |
| 1777768260 | 20.56° C | 46% | 1013.9 hPa | 0 mm | - | - | - |
| 1777767356 | 21.11° C | 45% | 1013.6 hPa | 0 mm | - | - | - |
| 1777766450 | 21.67° C | 44% | 1013.5 hPa | 0 mm | - | - | - |
| 1777765554 | 22.22° C | 45% | 1013.2 hPa | 0 mm | - | - | - |
| 1777764650 | 22.22° C | 43% | 1013 hPa | 0 mm | - | - | - |
| 1777763753 | 22.78° C | 41% | 1012.9 hPa | 0 mm | - | - | - |
| 1777762849 | 23.89° C | 40% | 1012.7 hPa | 0 mm | - | - | - |
| 1777761949 | 23.89° C | 41% | 1012.8 hPa | 0 mm | - | - | - |
| 1777761047 | 23.89° C | 40% | 1012.6 hPa | 0 mm | - | - | - |
| 1777760147 | 24.44° C | 39% | 1012.4 hPa | 0 mm | - | - | - |
| 1777759265 | 23.89° C | 40% | 1012.6 hPa | 0 mm | - | - | - |
| 1777758344 | 24.44° C | 40% | 1012.6 hPa | 0 mm | - | - | - |
| 1777757443 | 24.44° C | 42% | 1012.6 hPa | 0 mm | - | - | - |
| 1777756543 | 24.44° C | 42% | 1012.5 hPa | 0 mm | - | - | - |
| 1777755639 | 24.44° C | 43% | 1012.6 hPa | 0 mm | - | - | - |
| 1777754737 | 24.44° C | 46% | 1012.6 hPa | 0 mm | - | - | - |
| 1777753843 | 24.44° C | 48% | 1012.5 hPa | 0 mm | - | - | - |
| 1777752939 | 24.44° C | 48% | 1012.7 hPa | 0 mm | - | - | - |
| 1777752032 | 24.44° C | 50% | 1013 hPa | 0 mm | - | - | - |
| 1777751139 | 23.89° C | 52% | 1013 hPa | 0 mm | - | - | - |
* Rain latest hour (hover to see other rain measurements)
** Current wind speed in m/s (hover to see current wind gust speed)